createdAt,value
2023-04-10T00:00:46.425Z,72.69
2023-04-10T00:01:46.471Z,68.94
2023-04-10T00:02:46.502Z,75.60
2023-04-10T00:03:46.544Z,64.73
2023-04-10T00:04:46.443Z,49.69
2023-04-10T00:05:46.401Z,52.13
2023-04-10T00:06:46.358Z,50.70
2023-04-10T00:07:46.364Z,49.50
2023-04-10T00:08:46.377Z,37.00
2023-04-10T00:09:46.339Z,29.24
2023-04-10T00:10:46.312Z,24.88
2023-04-10T00:11:46.346Z,23.16
2023-04-10T00:12:46.387Z,19.37
2023-04-10T00:13:46.393Z,17.33
2023-04-10T00:14:46.402Z,16.17
2023-04-10T00:15:46.432Z,14.67
2023-04-10T00:16:46.505Z,13.95
2023-04-10T00:17:46.462Z,17.03
2023-04-10T00:18:46.444Z,20.64
2023-04-10T00:19:46.481Z,24.79
2023-04-10T00:20:46.465Z,30.32
2023-04-10T00:21:46.491Z,28.49
2023-04-10T00:22:46.497Z,25.21
2023-04-10T00:23:46.481Z,25.29
2023-04-10T00:24:46.481Z,24.46
2023-04-10T00:25:46.493Z,21.90
2023-04-10T00:26:46.493Z,24.14
2023-04-10T00:27:46.503Z,26.48
2023-04-10T00:28:46.510Z,25.23
2023-04-10T00:29:46.525Z,22.37
2023-04-10T00:30:46.547Z,20.31
2023-04-10T00:31:46.598Z,21.53
2023-04-10T00:32:46.613Z,24.50
2023-04-10T00:33:46.570Z,27.56
2023-04-10T00:34:46.591Z,29.46
2023-04-10T00:35:46.630Z,34.81
2023-04-10T00:36:46.609Z,39.95
2023-04-10T00:37:46.613Z,44.01
2023-04-10T00:38:46.639Z,56.68
2023-04-10T00:39:46.656Z,62.70
2023-04-10T00:40:46.710Z,69.41
2023-04-10T00:41:46.709Z,66.40
2023-04-10T00:42:46.697Z,68.57
2023-04-10T00:43:46.718Z,84.95
2023-04-10T00:44:46.718Z,70.55
2023-04-10T00:45:47.932Z,51.59
2023-04-10T00:46:46.699Z,35.25
2023-04-10T00:47:46.710Z,28.95
2023-04-10T00:48:46.660Z,31.20
2023-04-10T00:49:46.670Z,30.84
2023-04-10T00:50:46.677Z,27.71
2023-04-10T00:51:46.652Z,29.23
2023-04-10T00:52:46.634Z,32.44
2023-04-10T00:53:46.672Z,34.28
2023-04-10T00:54:46.624Z,40.77
2023-04-10T00:55:46.635Z,48.40
2023-04-10T00:56:46.597Z,63.70
2023-04-10T00:57:46.602Z,80.36
2023-04-10T00:58:46.596Z,93.84
2023-04-10T00:59:46.640Z,108.59
2023-04-10T01:00:46.629Z,108.51
2023-04-10T01:01:46.641Z,135.00
2023-04-10T01:02:46.695Z,141.84
2023-04-10T01:03:46.656Z,130.88
2023-04-10T01:04:46.563Z,126.88
2023-04-10T01:05:46.540Z,122.45
2023-04-10T01:06:46.608Z,84.77
2023-04-10T01:07:46.567Z,59.57
2023-04-10T01:08:46.539Z,54.46
2023-04-10T01:09:46.539Z,63.23
2023-04-10T01:10:46.565Z,69.95
2023-04-10T01:11:46.562Z,71.09
2023-04-10T01:12:46.493Z,77.02
2023-04-10T01:13:46.509Z,65.25
2023-04-10T01:14:46.503Z,36.20
2023-04-10T01:15:46.481Z,29.41
2023-04-10T01:16:46.595Z,30.90
2023-04-10T01:17:46.519Z,33.11
2023-04-10T01:18:46.499Z,31.13
2023-04-10T01:19:46.513Z,30.95
2023-04-10T01:20:46.481Z,30.21
2023-04-10T01:21:46.499Z,33.27
2023-04-10T01:22:46.488Z,37.15
2023-04-10T01:23:46.451Z,23.92
2023-04-10T01:24:46.444Z,16.97
2023-04-10T01:25:46.439Z,17.28
2023-04-10T01:26:46.442Z,19.83
2023-04-10T01:27:46.424Z,21.87
2023-04-10T01:28:46.453Z,20.51
2023-04-10T01:29:46.419Z,23.24
2023-04-10T01:30:46.972Z,24.66
2023-04-10T01:31:46.425Z,30.93
2023-04-10T01:32:46.432Z,29.11
2023-04-10T01:33:46.367Z,39.33
2023-04-10T01:34:46.371Z,53.07
2023-04-10T01:35:46.381Z,79.77
2023-04-10T01:36:46.386Z,119.56
2023-04-10T01:37:46.388Z,172.23
2023-04-10T01:38:46.368Z,248.57
2023-04-10T01:39:46.310Z,377.69
2023-04-10T01:40:46.329Z,493.74
2023-04-10T01:41:46.319Z,555.91
2023-04-10T01:42:46.311Z,464.08
2023-04-10T01:43:46.290Z,374.87
2023-04-10T01:44:46.318Z,333.71
2023-04-10T01:45:46.303Z,342.28
2023-04-10T01:46:46.429Z,277.85
2023-04-10T01:47:46.338Z,225.93
2023-04-10T01:48:46.280Z,218.67
2023-04-10T01:49:46.279Z,221.48
2023-04-10T01:50:46.253Z,251.23
2023-04-10T01:51:46.379Z,332.71
2023-04-10T01:52:46.394Z,386.49
2023-04-10T01:53:46.487Z,438.80
2023-04-10T01:54:46.503Z,491.62
2023-04-10T01:55:46.518Z,479.29
2023-04-10T01:56:46.553Z,430.16
2023-04-10T01:57:46.679Z,446.57
2023-04-10T01:58:46.571Z,523.11
2023-04-10T01:59:46.634Z,465.89
2023-04-10T02:00:46.643Z,437.86
2023-04-10T02:01:46.751Z,445.85
2023-04-10T02:02:46.948Z,397.13
2023-04-10T02:03:46.875Z,457.78
2023-04-10T02:04:46.955Z,438.02
2023-04-10T02:05:46.878Z,423.98
2023-04-10T02:06:46.928Z,353.09
2023-04-10T02:07:46.988Z,362.19
2023-04-10T02:08:47.037Z,257.14
2023-04-10T02:09:47.985Z,199.53
2023-04-10T02:10:47.095Z,146.77
2023-04-10T02:11:47.080Z,87.27
2023-04-10T02:12:47.115Z,59.36
2023-04-10T02:13:47.136Z,50.69
2023-04-10T02:14:47.122Z,40.44
2023-04-10T02:15:47.205Z,29.59
2023-04-10T02:16:47.204Z,26.44
2023-04-10T02:17:47.308Z,30.39
2023-04-10T02:18:47.264Z,26.41
2023-04-10T02:19:47.277Z,25.87
2023-04-10T02:20:47.308Z,24.00
2023-04-10T02:21:47.386Z,23.18
2023-04-10T02:22:47.356Z,22.98
2023-04-10T02:23:47.395Z,23.17
2023-04-10T02:24:47.392Z,19.65
2023-04-10T02:25:47.440Z,17.10
2023-04-10T02:26:47.519Z,16.23
2023-04-10T02:27:47.492Z,18.77
2023-04-10T02:28:47.547Z,20.24
2023-04-10T02:29:47.554Z,16.79
2023-04-10T02:30:47.485Z,16.07
2023-04-10T02:31:47.656Z,15.57
2023-04-10T02:32:47.614Z,14.26
2023-04-10T02:33:47.639Z,12.84
2023-04-10T02:34:47.697Z,14.14
2023-04-10T02:35:47.678Z,18.91
2023-04-10T02:36:47.689Z,21.78
2023-04-10T02:37:47.724Z,24.02
2023-04-10T02:38:47.752Z,33.75
2023-04-10T02:39:47.805Z,39.79
2023-04-10T02:40:47.816Z,38.12
2023-04-10T02:41:47.938Z,35.01
2023-04-10T02:42:47.885Z,32.28
2023-04-10T02:43:47.902Z,32.98
2023-04-10T02:44:47.982Z,33.83
2023-04-10T02:45:47.999Z,30.23
2023-04-10T02:46:48.117Z,27.00
2023-04-10T02:47:48.160Z,25.67
2023-04-10T02:48:48.161Z,28.64
2023-04-10T02:49:48.218Z,32.01
2023-04-10T02:50:48.247Z,36.89
2023-04-10T02:51:48.293Z,52.05
2023-04-10T02:52:48.377Z,58.95
2023-04-10T02:53:56.170Z,79.88
2023-04-10T02:54:48.682Z,80.77
2023-04-10T02:55:48.360Z,82.37
2023-04-10T02:56:48.361Z,82.41
2023-04-10T02:57:48.360Z,79.51
2023-04-10T02:58:48.338Z,75.78
2023-04-10T02:59:48.354Z,79.98
2023-04-10T03:00:48.327Z,81.47
2023-04-10T03:01:48.446Z,64.58
2023-04-10T03:02:48.457Z,42.10
2023-04-10T03:03:48.433Z,32.44
2023-04-10T03:04:48.390Z,38.64
2023-04-10T03:05:48.300Z,103.87
2023-04-10T03:06:48.291Z,160.00
2023-04-10T03:07:48.331Z,231.99
2023-04-10T03:08:48.368Z,301.84
2023-04-10T03:09:48.445Z,422.19
2023-04-10T03:10:48.490Z,504.18
2023-04-10T03:11:48.563Z,637.84
2023-04-10T03:12:48.640Z,686.77
2023-04-10T03:13:48.725Z,826.48
2023-04-10T03:14:48.765Z,757.40
2023-04-10T03:15:48.840Z,794.46
2023-04-10T03:16:49.928Z,1000.00
2023-04-10T03:17:48.964Z,1000.00
2023-04-10T03:18:48.970Z,1000.00
2023-04-10T03:19:49.053Z,924.77
2023-04-10T03:20:49.107Z,776.00
2023-04-10T03:21:49.154Z,728.20
2023-04-10T03:22:49.222Z,686.07
2023-04-10T03:23:49.246Z,634.65
2023-04-10T03:24:49.292Z,602.26
2023-04-10T03:25:49.386Z,597.19
2023-04-10T03:26:49.433Z,577.19
2023-04-10T03:27:49.477Z,537.23
2023-04-10T03:28:49.540Z,561.64
2023-04-10T03:29:49.589Z,523.18
2023-04-10T03:30:49.626Z,537.73
2023-04-10T03:31:49.725Z,515.85
2023-04-10T03:32:49.723Z,593.16
2023-04-10T03:33:49.803Z,718.19
2023-04-10T03:34:49.775Z,857.21
2023-04-10T03:35:49.832Z,924.05
2023-04-10T03:36:49.903Z,987.17
2023-04-10T03:37:49.937Z,1000.00
2023-04-10T03:38:49.905Z,1000.00
2023-04-10T03:39:50.010Z,1000.00
2023-04-10T03:40:50.053Z,1000.00
2023-04-10T03:41:50.094Z,1000.00
2023-04-10T03:44:10.282Z,0.50
2023-04-10T03:45:10.278Z,0.50
2023-04-10T03:46:10.236Z,0.50
2023-04-10T03:47:10.283Z,0.50
2023-04-10T03:48:10.242Z,0.50
2023-04-10T03:49:10.251Z,0.49
2023-04-10T03:50:10.229Z,0.50
2023-04-10T03:51:10.226Z,0.51
2023-04-10T03:52:10.228Z,0.67
2023-04-10T03:53:10.247Z,0.97
2023-04-10T03:54:10.215Z,1.28
2023-04-10T03:55:10.189Z,1.49
2023-04-10T03:56:10.183Z,1.64
2023-04-10T03:57:10.197Z,1.37
2023-04-10T03:58:10.175Z,1.05
2023-04-10T03:59:10.207Z,0.77
2023-04-10T04:00:10.123Z,0.65
2023-04-10T04:01:10.191Z,0.61
2023-04-10T04:02:10.325Z,0.50
2023-04-10T04:03:10.350Z,0.47
2023-04-10T04:04:10.246Z,0.52
2023-04-10T04:05:10.170Z,0.54
2023-04-10T04:06:10.127Z,0.70
2023-04-10T04:07:10.150Z,0.73
2023-04-10T04:08:10.106Z,0.91
2023-04-10T04:09:10.095Z,1.13
2023-04-10T04:10:10.120Z,1.45
2023-04-10T04:11:10.117Z,1.85
2023-04-10T04:12:10.135Z,2.33
2023-04-10T04:13:10.204Z,2.70
2023-04-10T04:14:10.129Z,2.62
2023-04-10T04:15:10.121Z,2.32
2023-04-10T04:16:10.199Z,2.15
2023-04-10T04:17:10.098Z,1.92
2023-04-10T04:18:10.189Z,1.32
2023-04-10T04:19:10.161Z,0.97
2023-04-10T04:20:10.239Z,0.85
2023-04-10T04:21:10.344Z,0.80
2023-04-10T04:22:10.389Z,0.70
2023-04-10T04:23:10.413Z,0.63
2023-04-10T04:24:10.442Z,0.62
2023-04-10T04:25:10.538Z,0.60
2023-04-10T04:26:10.565Z,0.62
2023-04-10T04:27:10.687Z,0.68
2023-04-10T04:28:10.786Z,0.82
2023-04-10T04:29:10.787Z,0.95
2023-04-10T04:30:10.870Z,1.09
2023-04-10T04:31:10.914Z,1.17
2023-04-10T04:32:11.039Z,1.26
2023-04-10T04:33:11.085Z,1.09
2023-04-10T04:34:11.127Z,1.00
2023-04-10T04:35:11.205Z,0.86
2023-04-10T04:36:11.292Z,0.79
2023-04-10T04:37:11.401Z,0.75
2023-04-10T04:38:11.361Z,0.74
2023-04-10T04:39:11.439Z,0.72
2023-04-10T04:40:11.325Z,0.67
2023-04-10T04:41:11.365Z,0.58
2023-04-10T04:42:11.397Z,0.57
2023-04-10T04:43:11.375Z,0.55
2023-04-10T04:44:11.368Z,0.53
2023-04-10T04:45:11.400Z,0.54
2023-04-10T04:46:11.369Z,0.56
2023-04-10T04:47:11.355Z,0.61
2023-04-10T04:48:11.388Z,0.68
2023-04-10T04:49:11.381Z,0.76
2023-04-10T04:50:11.487Z,0.93
2023-04-10T04:51:11.421Z,1.10
2023-04-10T04:52:11.450Z,1.25
2023-04-10T04:53:11.452Z,1.37
2023-04-10T04:54:11.441Z,1.56
2023-04-10T04:55:11.449Z,1.97
2023-04-10T04:56:11.462Z,2.48
2023-04-10T04:57:11.493Z,3.48
2023-04-10T04:58:11.470Z,4.70
2023-04-10T04:59:11.456Z,5.78
2023-04-10T05:01:40.714Z,0.50
2023-04-10T05:02:31.533Z,0.50
2023-04-10T05:03:31.630Z,0.50
2023-04-10T05:04:31.453Z,0.50
2023-04-10T05:05:31.451Z,0.50
2023-04-10T05:06:31.436Z,0.50
2023-04-10T05:07:31.761Z,0.50
2023-04-10T05:08:31.465Z,0.50
2023-04-10T05:09:31.427Z,0.50
2023-04-10T05:10:31.534Z,0.51
2023-04-10T05:11:31.421Z,0.50
2023-04-10T05:12:31.511Z,0.50
2023-04-10T05:13:31.398Z,0.50
2023-04-10T05:14:31.430Z,0.50
2023-04-10T05:15:31.372Z,0.46
2023-04-10T05:16:31.432Z,0.42
2023-04-10T05:17:31.452Z,0.41
2023-04-10T05:18:31.410Z,0.45
2023-04-10T05:19:31.390Z,0.45
2023-04-10T05:20:31.389Z,0.46
2023-04-10T05:21:31.457Z,0.51
2023-04-10T05:22:31.852Z,0.66
2023-04-10T05:23:31.354Z,0.69
2023-04-10T05:24:31.377Z,0.54
2023-04-10T05:25:31.371Z,0.50
2023-04-10T05:26:31.316Z,0.48
2023-04-10T05:27:31.380Z,0.49
2023-04-10T05:28:31.300Z,0.48
2023-04-10T05:29:31.311Z,0.51
2023-04-10T05:30:31.296Z,0.54
2023-04-10T05:31:31.748Z,0.50
2023-04-10T05:32:31.275Z,0.57
2023-04-10T05:33:31.573Z,0.59
2023-04-10T05:34:31.639Z,0.53
2023-04-10T05:35:31.271Z,0.51
2023-04-10T05:36:31.247Z,0.51
2023-04-10T05:37:31.273Z,0.49
2023-04-10T05:38:31.275Z,0.34
2023-04-10T05:39:31.272Z,0.39
2023-04-10T05:40:32.011Z,0.41
2023-04-10T05:41:31.661Z,0.48
2023-04-10T05:42:31.272Z,0.51
2023-04-10T05:43:31.203Z,0.46
2023-04-10T05:44:31.207Z,0.51
2023-04-10T05:48:10.761Z,0.50
2023-04-10T05:49:10.788Z,0.50
2023-04-10T05:50:10.766Z,0.50
2023-04-10T05:51:10.700Z,0.50
2023-04-10T05:52:10.730Z,0.50
2023-04-10T05:53:10.811Z,0.54
2023-04-10T05:54:10.791Z,0.64
2023-04-10T05:55:10.725Z,0.75
2023-04-10T05:56:10.725Z,0.90
2023-04-10T05:57:10.785Z,0.65
2023-04-10T05:58:10.739Z,0.46
2023-04-10T05:59:10.671Z,0.49
2023-04-10T06:00:10.682Z,0.59
2023-04-10T06:01:10.701Z,0.55
2023-04-10T06:02:10.781Z,0.61
2023-04-10T06:03:10.787Z,0.77
2023-04-10T06:04:10.906Z,0.68
2023-04-10T06:05:10.757Z,0.75
2023-04-10T06:06:10.684Z,0.65
2023-04-10T06:07:10.671Z,0.46
2023-04-10T06:08:10.677Z,0.43
2023-04-10T06:09:10.634Z,0.53
2023-04-10T06:10:10.705Z,0.44
2023-04-10T06:11:10.615Z,0.51
2023-04-10T06:12:10.625Z,0.58
2023-04-10T06:13:11.323Z,0.57
2023-04-10T06:14:10.626Z,0.45
2023-04-10T06:15:10.686Z,0.41
2023-04-10T06:16:10.804Z,0.35
2023-04-10T06:17:10.589Z,0.50
2023-04-10T06:18:10.609Z,0.37
2023-04-10T06:19:10.571Z,0.34
2023-04-10T06:20:10.651Z,0.34
2023-04-10T06:21:10.543Z,0.34
2023-04-10T06:22:10.579Z,0.34
2023-04-10T06:23:10.614Z,0.34
2023-04-10T06:24:12.808Z,0.34
2023-04-10T06:25:10.600Z,0.35
2023-04-10T06:26:10.658Z,0.52
2023-04-10T06:27:10.654Z,0.95
2023-04-10T06:28:10.737Z,0.91
2023-04-10T06:29:10.750Z,1.21
2023-04-10T06:30:10.889Z,0.73
2023-04-10T06:31:10.812Z,0.65
2023-04-10T06:32:10.793Z,0.83
2023-04-10T06:33:10.877Z,0.57
2023-04-10T06:34:10.831Z,0.61
2023-04-10T06:35:10.865Z,0.85
2023-04-10T06:36:10.885Z,1.23
2023-04-10T06:37:10.879Z,1.11
2023-04-10T06:38:11.747Z,0.95
2023-04-10T06:39:10.951Z,0.75
2023-04-10T06:40:11.001Z,0.81
2023-04-10T06:41:11.008Z,0.80
2023-04-10T06:42:11.044Z,0.77
2023-04-10T06:43:11.140Z,0.43
2023-04-10T06:44:11.497Z,0.57
2023-04-10T06:45:11.300Z,0.71
2023-04-10T06:46:11.314Z,0.59
2023-04-10T06:47:11.372Z,0.47
2023-04-10T06:48:11.441Z,0.45
2023-04-10T06:49:11.461Z,0.48
2023-04-10T06:50:11.437Z,0.49
2023-04-10T06:51:11.426Z,0.51
2023-04-10T06:52:11.479Z,0.46
2023-04-10T06:53:11.515Z,0.48
2023-04-10T06:54:11.549Z,0.53
2023-04-10T06:55:11.589Z,0.50
2023-04-10T06:56:11.528Z,0.54
2023-04-10T06:57:11.647Z,0.34
2023-04-10T06:58:11.790Z,0.34
2023-04-10T06:59:12.496Z,0.34
2023-04-10T07:00:11.720Z,0.40
2023-04-10T07:01:11.799Z,0.51
2023-04-10T07:02:11.836Z,0.64
2023-04-10T07:03:11.878Z,0.61
2023-04-10T07:04:11.981Z,0.63
2023-04-10T07:05:11.897Z,0.64
2023-04-10T07:06:11.964Z,0.64
2023-04-10T07:07:11.997Z,0.57
2023-04-10T07:08:12.029Z,0.60
2023-04-10T07:09:12.022Z,0.50
2023-04-10T07:10:12.059Z,0.50
2023-04-10T07:11:12.089Z,0.53
2023-04-10T07:12:12.478Z,0.62
2023-04-10T07:13:12.226Z,0.51
2023-04-10T07:14:12.771Z,0.50
2023-04-10T07:15:12.352Z,0.50
2023-04-10T07:16:12.335Z,0.58
2023-04-10T07:17:12.387Z,0.57
2023-04-10T07:18:12.468Z,0.54
2023-04-10T07:19:12.469Z,0.49
2023-04-10T07:20:12.594Z,0.34
2023-04-10T07:21:12.572Z,0.34
2023-04-10T07:22:12.637Z,0.34
2023-04-10T07:23:12.711Z,0.38
2023-04-10T07:24:12.757Z,0.52
2023-04-10T07:25:12.865Z,0.64
2023-04-10T07:26:12.824Z,0.47
2023-04-10T07:27:12.871Z,0.49
2023-04-10T07:28:12.963Z,0.65
2023-04-10T07:29:12.910Z,0.58
2023-04-10T07:30:13.838Z,0.48
2023-04-10T07:31:13.027Z,0.34
2023-04-10T07:32:13.186Z,0.34
2023-04-10T07:33:13.373Z,0.34
2023-04-10T07:34:13.075Z,0.45
2023-04-10T07:35:13.138Z,0.56
2023-04-10T07:36:13.175Z,0.49
2023-04-10T07:37:13.143Z,0.55
2023-04-10T07:38:13.232Z,0.67
2023-04-10T07:39:13.345Z,0.63
2023-04-10T07:40:13.918Z,0.48
2023-04-10T07:41:13.346Z,0.41
2023-04-10T07:42:13.394Z,0.34
2023-04-10T07:43:13.439Z,0.34
2023-04-10T07:44:13.460Z,0.52
2023-04-10T07:45:13.559Z,0.44
2023-04-10T07:46:13.558Z,0.47
2023-04-10T07:47:13.582Z,0.71
2023-04-10T07:48:13.611Z,1.04
2023-04-10T07:49:13.644Z,0.93
2023-04-10T07:50:13.639Z,0.93
2023-04-10T07:51:14.689Z,0.89
2023-04-10T07:52:13.690Z,0.61
2023-04-10T07:53:13.763Z,0.63
2023-04-10T07:54:13.883Z,0.68
2023-04-10T07:55:13.906Z,0.84
2023-04-10T07:56:13.969Z,0.68
2023-04-10T07:57:14.003Z,0.62
2023-04-10T07:58:14.101Z,0.51
2023-04-10T07:59:14.099Z,0.59
2023-04-10T08:00:14.125Z,0.68
2023-04-10T08:01:14.124Z,0.78
2023-04-10T08:02:14.265Z,0.65
2023-04-10T08:03:14.300Z,0.64
2023-04-10T08:04:14.522Z,0.48
2023-04-10T08:05:14.392Z,0.60
2023-04-10T08:06:14.275Z,0.53
2023-04-10T08:07:14.329Z,0.46
2023-04-10T08:08:14.407Z,0.51
2023-04-10T08:09:14.365Z,0.34
2023-04-10T08:10:14.375Z,0.34
2023-04-10T08:11:14.766Z,0.34
2023-04-10T08:12:14.376Z,0.34
2023-04-10T08:13:14.448Z,0.34
2023-04-10T08:14:18.248Z,0.34
2023-04-10T08:15:14.375Z,0.34
2023-04-10T08:16:14.420Z,0.36
2023-04-10T08:17:14.471Z,0.34
2023-04-10T08:18:14.425Z,0.34
2023-04-10T08:19:14.444Z,0.34
2023-04-10T08:20:14.385Z,0.36
2023-04-10T08:21:14.336Z,0.55
2023-04-10T08:22:14.334Z,0.53
2023-04-10T08:23:20.478Z,0.74
2023-04-10T08:24:15.367Z,0.60
2023-04-10T08:25:14.353Z,0.53
2023-04-10T08:26:14.332Z,0.75
2023-04-10T08:27:14.314Z,0.46
2023-04-10T08:28:14.365Z,0.34
2023-04-10T08:29:14.370Z,0.39
2023-04-10T08:30:14.314Z,0.34
2023-04-10T08:31:14.380Z,0.34
2023-04-10T08:32:14.243Z,0.37
2023-04-10T08:33:14.299Z,0.49
2023-04-10T08:34:14.301Z,0.37
2023-04-10T08:35:14.263Z,0.49
2023-04-10T08:36:14.381Z,0.40
2023-04-10T08:37:14.382Z,0.41
2023-04-10T08:38:14.859Z,0.45
2023-04-10T08:39:14.512Z,0.54
2023-04-10T08:40:14.525Z,0.48
2023-04-10T08:41:14.532Z,0.63
2023-04-10T08:42:14.604Z,0.49
2023-04-10T08:43:14.618Z,0.44
2023-04-10T08:44:14.606Z,0.48
2023-04-10T08:45:15.276Z,0.41
2023-04-10T08:46:14.950Z,0.34
2023-04-10T08:47:14.690Z,0.34
2023-04-10T08:48:14.709Z,0.34
2023-04-10T08:49:14.767Z,0.49
2023-04-10T08:50:14.814Z,0.66
2023-04-10T08:51:19.462Z,0.80
2023-04-10T08:52:15.769Z,0.81
2023-04-10T08:53:14.765Z,0.88
2023-04-10T08:54:14.797Z,1.12
2023-04-10T08:55:14.777Z,1.46
2023-04-10T08:56:14.765Z,2.08
2023-04-10T08:57:14.739Z,2.48
2023-04-10T08:58:14.732Z,1.99
2023-04-10T08:59:14.792Z,1.85
2023-04-10T09:00:23.100Z,2.12
2023-04-10T09:01:15.732Z,2.13
2023-04-10T09:02:14.798Z,1.36
2023-04-10T09:03:14.968Z,1.32
2023-04-10T09:04:14.841Z,1.99
2023-04-10T09:05:14.679Z,1.83
2023-04-10T09:06:14.672Z,2.09
2023-04-10T09:07:14.688Z,3.71
2023-04-10T09:08:14.693Z,4.68
2023-04-10T09:09:14.694Z,4.69
2023-04-10T09:10:14.723Z,5.55
2023-04-10T09:11:14.625Z,5.05
2023-04-10T09:12:14.620Z,4.88
2023-04-10T09:13:14.598Z,5.29
2023-04-10T09:14:14.624Z,7.53
2023-04-10T09:15:14.640Z,2.16
2023-04-10T09:16:14.620Z,0.76
2023-04-10T09:17:14.642Z,0.53
2023-04-10T09:18:14.589Z,0.34
2023-04-10T09:19:14.649Z,0.34
2023-04-10T09:20:14.668Z,0.34
2023-04-10T09:21:14.713Z,0.40
2023-04-10T09:22:14.763Z,0.54
2023-04-10T09:23:14.698Z,0.78
2023-04-10T09:24:14.916Z,0.90
2023-04-10T09:25:14.791Z,0.79
2023-04-10T09:26:14.894Z,0.64
2023-04-10T09:27:14.930Z,0.77
2023-04-10T09:28:14.907Z,0.53
2023-04-10T09:29:14.946Z,0.47
2023-04-10T09:30:14.887Z,0.56
2023-04-10T09:31:14.969Z,0.48
2023-04-10T09:32:15.022Z,0.54
2023-04-10T09:33:15.055Z,0.65
2023-04-10T09:34:15.078Z,1.03
2023-04-10T09:35:15.175Z,1.45
2023-04-10T09:36:15.379Z,1.44
2023-04-10T09:37:15.182Z,2.03
2023-04-10T09:38:15.193Z,2.72
2023-04-10T09:39:15.259Z,4.11
2023-04-10T09:40:15.326Z,4.90
2023-04-10T09:41:15.227Z,4.61
2023-04-10T09:42:15.342Z,5.00
2023-04-10T09:43:15.323Z,4.83
2023-04-10T09:44:15.384Z,7.72
2023-04-10T09:45:15.411Z,5.31
2023-04-10T09:46:15.408Z,5.65
2023-04-10T09:47:15.402Z,5.50
2023-04-10T09:48:15.470Z,3.80
2023-04-10T09:49:15.480Z,4.25
2023-04-10T09:50:15.465Z,6.37
2023-04-10T09:51:15.501Z,6.56
2023-04-10T09:52:15.513Z,7.02
2023-04-10T09:53:15.523Z,10.56
2023-04-10T09:54:15.578Z,10.97
2023-04-10T09:55:15.602Z,13.66
2023-04-10T09:56:15.520Z,13.05
2023-04-10T09:57:15.515Z,10.59
2023-04-10T09:58:15.559Z,14.37
2023-04-10T09:59:15.562Z,9.34
2023-04-10T10:00:15.614Z,12.28
2023-04-10T10:01:15.648Z,18.97
2023-04-10T10:02:15.771Z,13.50
2023-04-10T10:03:15.840Z,12.89
2023-04-10T10:04:15.917Z,14.22
2023-04-10T10:05:15.896Z,8.62
2023-04-10T10:06:15.901Z,10.97
2023-04-10T10:07:16.027Z,15.00
2023-04-10T10:08:16.038Z,23.08
2023-04-10T10:09:16.084Z,23.82
2023-04-10T10:10:16.133Z,25.32
2023-04-10T10:11:16.202Z,9.72
2023-04-10T10:12:16.198Z,13.83
2023-04-10T10:13:16.168Z,14.07
2023-04-10T10:14:16.183Z,12.77
2023-04-10T10:15:16.168Z,14.74
2023-04-10T10:16:16.204Z,11.11
2023-04-10T10:17:16.168Z,12.74
2023-04-10T10:18:16.192Z,9.66
2023-04-10T10:19:16.246Z,4.30
2023-04-10T10:20:16.188Z,4.61
2023-04-10T10:21:16.232Z,7.41
2023-04-10T10:22:16.864Z,7.15
2023-04-10T10:23:16.331Z,7.42
2023-04-10T10:24:16.408Z,9.66
2023-04-10T10:25:16.339Z,10.18
2023-04-10T10:26:16.376Z,10.06
2023-04-10T10:27:16.393Z,6.31
2023-04-10T10:28:16.458Z,8.53
2023-04-10T10:29:16.537Z,10.63
2023-04-10T10:30:28.689Z,9.59
2023-04-10T10:31:17.624Z,9.23
2023-04-10T10:32:16.501Z,9.85
2023-04-10T10:33:16.492Z,11.05
2023-04-10T10:34:16.549Z,7.60
2023-04-10T10:35:16.506Z,10.28
2023-04-10T10:36:16.506Z,7.50
2023-04-10T10:37:16.437Z,7.86
2023-04-10T10:38:16.442Z,14.35
2023-04-10T10:39:16.474Z,14.37
2023-04-10T10:40:16.497Z,14.24
2023-04-10T10:41:16.434Z,19.92
2023-04-10T10:42:16.414Z,16.78
2023-04-10T10:43:16.471Z,12.13
2023-04-10T10:44:16.427Z,12.95
2023-04-10T10:45:16.378Z,17.30
2023-04-10T10:46:16.787Z,22.21
2023-04-10T10:47:16.438Z,40.68
2023-04-10T10:48:16.399Z,18.43
2023-04-10T10:49:16.361Z,8.44
2023-04-10T10:50:16.410Z,7.74
2023-04-10T10:51:16.353Z,10.55
2023-04-10T10:52:16.388Z,8.81
2023-04-10T10:53:16.356Z,8.80
2023-04-10T10:54:16.338Z,8.27
2023-04-10T10:55:16.326Z,6.21
2023-04-10T10:56:16.327Z,7.17
2023-04-10T10:57:16.870Z,7.33
2023-04-10T10:58:16.313Z,5.91
2023-04-10T10:59:16.370Z,5.49
2023-04-10T11:00:16.427Z,5.30
2023-04-10T11:01:16.301Z,5.88
2023-04-10T11:02:16.328Z,5.42
2023-04-10T11:03:16.454Z,6.32
2023-04-10T11:04:16.338Z,5.17
2023-04-10T11:05:16.308Z,5.30
2023-04-10T11:06:16.268Z,5.78
2023-04-10T11:07:16.239Z,8.25
2023-04-10T11:08:16.247Z,8.98
2023-04-10T11:09:16.351Z,6.49
2023-04-10T11:10:16.197Z,4.63
2023-04-10T11:11:16.396Z,7.72
2023-04-10T11:12:16.218Z,9.35
2023-04-10T11:13:16.347Z,10.53
2023-04-10T11:14:16.359Z,11.85
2023-04-10T11:15:16.338Z,5.45
2023-04-10T11:16:16.373Z,3.94
2023-04-10T11:17:16.382Z,4.54
2023-04-10T11:18:16.391Z,9.35
2023-04-10T11:19:17.019Z,5.95
2023-04-10T11:20:16.377Z,7.95
2023-04-10T11:21:16.414Z,5.38
2023-04-10T11:22:16.507Z,5.00
2023-04-10T11:23:16.431Z,5.87
2023-04-10T11:24:16.462Z,6.12
2023-04-10T11:25:16.451Z,14.48
2023-04-10T11:26:16.562Z,13.70
2023-04-10T11:27:16.568Z,8.41
2023-04-10T11:28:16.576Z,7.56
2023-04-10T11:29:16.675Z,5.79
2023-04-10T11:30:16.679Z,8.28
2023-04-10T11:31:16.689Z,5.44
2023-04-10T11:32:17.024Z,4.69
2023-04-10T11:33:16.716Z,7.57
2023-04-10T11:34:16.812Z,12.55
2023-04-10T11:35:16.718Z,10.57
2023-04-10T11:36:16.798Z,11.04
2023-04-10T11:37:16.820Z,9.39
2023-04-10T11:38:16.826Z,14.83
2023-04-10T11:39:16.868Z,16.86
2023-04-10T11:40:16.849Z,11.26
2023-04-10T11:41:16.935Z,9.90
2023-04-10T11:42:16.972Z,10.39
2023-04-10T11:43:17.066Z,7.48
2023-04-10T11:44:17.019Z,14.33
2023-04-10T11:45:17.091Z,15.78
2023-04-10T11:46:17.158Z,19.04
2023-04-10T11:47:17.181Z,15.12
2023-04-10T11:48:17.169Z,12.87
2023-04-10T11:49:17.222Z,11.29
2023-04-10T11:50:17.223Z,12.34
2023-04-10T11:51:17.228Z,7.02
2023-04-10T11:52:17.268Z,9.42
2023-04-10T11:53:17.251Z,12.84
2023-04-10T11:54:17.314Z,12.57
2023-04-10T11:55:17.360Z,13.51
2023-04-10T11:56:17.339Z,7.40
2023-04-10T11:57:17.442Z,7.96
2023-04-10T11:58:17.444Z,7.04
2023-04-10T11:59:17.461Z,14.75
2023-04-10T12:00:17.500Z,7.94
2023-04-10T12:01:17.510Z,22.02
2023-04-10T12:02:17.682Z,30.51
2023-04-10T12:03:17.700Z,15.13
2023-04-10T12:04:17.923Z,14.40
2023-04-10T12:05:17.779Z,13.42
2023-04-10T12:06:17.658Z,19.43
2023-04-10T12:07:17.713Z,19.40
2023-04-10T12:08:17.754Z,12.65
2023-04-10T12:09:17.772Z,11.38
2023-04-10T12:10:17.770Z,8.47
2023-04-10T12:11:17.810Z,8.37
2023-04-10T12:12:17.852Z,12.35
2023-04-10T12:13:17.900Z,7.15
2023-04-10T12:14:17.940Z,5.51
2023-04-10T12:15:17.913Z,4.82
2023-04-10T12:16:18.039Z,4.61
2023-04-10T12:17:17.944Z,6.62
2023-04-10T12:18:17.991Z,7.86
2023-04-10T12:19:18.109Z,7.44
2023-04-10T12:20:17.990Z,10.10
2023-04-10T12:21:18.007Z,16.92
2023-04-10T12:22:18.127Z,14.23
2023-04-10T12:23:18.191Z,15.73
2023-04-10T12:24:18.237Z,8.72
2023-04-10T12:25:18.252Z,9.36
2023-04-10T12:26:18.289Z,10.81
2023-04-10T12:27:18.331Z,13.01
2023-04-10T12:28:18.363Z,19.23
2023-04-10T12:29:18.367Z,16.15
2023-04-10T12:30:18.428Z,8.01
2023-04-10T12:31:18.437Z,11.76
2023-04-10T12:32:18.517Z,20.90
2023-04-10T12:33:18.438Z,14.25
2023-04-10T12:34:18.563Z,12.67
2023-04-10T12:35:18.607Z,4.23
2023-04-10T12:36:18.633Z,3.72
2023-04-10T12:37:18.708Z,5.80
2023-04-10T12:38:18.739Z,3.88
2023-04-10T12:39:18.710Z,4.59
2023-04-10T12:40:18.770Z,5.21
2023-04-10T12:41:18.777Z,6.70
2023-04-10T12:42:18.785Z,2.48
2023-04-10T12:43:18.804Z,6.10
2023-04-10T12:44:18.942Z,4.39
2023-04-10T12:45:18.957Z,5.54
2023-04-10T12:46:18.924Z,5.44
2023-04-10T12:47:18.984Z,2.63
2023-04-10T12:48:18.965Z,3.43
2023-04-10T12:49:19.039Z,3.14
2023-04-10T12:50:19.009Z,2.73
2023-04-10T12:51:19.053Z,1.94
2023-04-10T12:52:19.104Z,2.56
2023-04-10T12:53:19.099Z,2.75
2023-04-10T12:54:19.145Z,2.85
2023-04-10T12:55:19.228Z,1.91
2023-04-10T12:56:19.127Z,1.78
2023-04-10T12:57:19.152Z,1.73
2023-04-10T12:58:19.203Z,2.80
2023-04-10T12:59:19.249Z,2.31
2023-04-10T13:00:19.221Z,3.07
2023-04-10T13:01:19.362Z,4.50
2023-04-10T13:02:19.451Z,2.64
2023-04-10T13:03:19.420Z,1.66
2023-04-10T13:04:19.482Z,2.64
2023-04-10T13:05:19.420Z,2.45
2023-04-10T13:06:19.441Z,6.30
2023-04-10T13:07:19.486Z,6.09
2023-04-10T13:08:19.545Z,7.37
2023-04-10T13:09:19.592Z,6.31
2023-04-10T13:10:19.555Z,2.89
2023-04-10T13:11:19.565Z,2.19